sensor_id;sensor_type;location;lat;lon;timestamp;temperature;humidity
24217;DHT22;12356;49.386;8.688;2024-03-07T00:02:15;7.60;56.60
24217;DHT22;12356;49.386;8.688;2024-03-07T00:04:47;7.50;57.20
24217;DHT22;12356;49.386;8.688;2024-03-07T00:07:18;7.50;57.30
24217;DHT22;12356;49.386;8.688;2024-03-07T00:09:48;7.50;55.80
24217;DHT22;12356;49.386;8.688;2024-03-07T00:12:21;7.50;56.50
24217;DHT22;12356;49.386;8.688;2024-03-07T00:14:53;7.50;56.10
24217;DHT22;12356;49.386;8.688;2024-03-07T00:17:23;7.50;54.30
24217;DHT22;12356;49.386;8.688;2024-03-07T00:19:54;7.50;54.90
24217;DHT22;12356;49.386;8.688;2024-03-07T00:22:24;7.40;55.10
24217;DHT22;12356;49.386;8.688;2024-03-07T00:24:57;7.30;54.70
24217;DHT22;12356;49.386;8.688;2024-03-07T00:27:27;7.40;55.50
24217;DHT22;12356;49.386;8.688;2024-03-07T00:29:59;7.40;55.30
24217;DHT22;12356;49.386;8.688;2024-03-07T00:32:29;7.40;55.50
24217;DHT22;12356;49.386;8.688;2024-03-07T00:35:08;7.40;54.00
24217;DHT22;12356;49.386;8.688;2024-03-07T00:37:39;7.40;53.90
24217;DHT22;12356;49.386;8.688;2024-03-07T00:40:10;7.40;54.30
24217;DHT22;12356;49.386;8.688;2024-03-07T00:42:41;7.30;54.90
24217;DHT22;12356;49.386;8.688;2024-03-07T00:45:11;7.30;56.00
24217;DHT22;12356;49.386;8.688;2024-03-07T00:47:42;7.30;56.10
24217;DHT22;12356;49.386;8.688;2024-03-07T00:50:12;7.40;56.50
24217;DHT22;12356;49.386;8.688;2024-03-07T00:52:43;7.40;56.00
24217;DHT22;12356;49.386;8.688;2024-03-07T00:55:14;7.40;55.30
24217;DHT22;12356;49.386;8.688;2024-03-07T00:57:45;7.50;55.00
24217;DHT22;12356;49.386;8.688;2024-03-07T01:00:17;7.50;54.30
24217;DHT22;12356;49.386;8.688;2024-03-07T01:02:51;7.50;54.00
24217;DHT22;12356;49.386;8.688;2024-03-07T01:05:23;7.50;53.00
24217;DHT22;12356;49.386;8.688;2024-03-07T01:07:54;7.50;52.50
24217;DHT22;12356;49.386;8.688;2024-03-07T01:10:26;7.50;50.90
24217;DHT22;12356;49.386;8.688;2024-03-07T01:12:57;7.40;51.20
24217;DHT22;12356;49.386;8.688;2024-03-07T01:15:32;7.40;51.00
24217;DHT22;12356;49.386;8.688;2024-03-07T01:18:03;7.40;51.00
24217;DHT22;12356;49.386;8.688;2024-03-07T01:20:34;7.40;50.90
24217;DHT22;12356;49.386;8.688;2024-03-07T01:23:06;7.50;50.40
24217;DHT22;12356;49.386;8.688;2024-03-07T01:25:38;7.40;49.80
24217;DHT22;12356;49.386;8.688;2024-03-07T01:28:09;7.30;50.10
24217;DHT22;12356;49.386;8.688;2024-03-07T01:30:42;7.30;50.40
24217;DHT22;12356;49.386;8.688;2024-03-07T01:33:13;7.40;49.80
24217;DHT22;12356;49.386;8.688;2024-03-07T01:35:43;7.30;47.90
24217;DHT22;12356;49.386;8.688;2024-03-07T01:38:14;7.20;49.10
24217;DHT22;12356;49.386;8.688;2024-03-07T01:40:45;7.20;49.40
24217;DHT22;12356;49.386;8.688;2024-03-07T01:43:16;7.20;48.90
24217;DHT22;12356;49.386;8.688;2024-03-07T01:45:46;7.20;48.60
24217;DHT22;12356;49.386;8.688;2024-03-07T01:48:26;7.20;47.70
24217;DHT22;12356;49.386;8.688;2024-03-07T01:50:58;7.10;48.60
24217;DHT22;12356;49.386;8.688;2024-03-07T01:53:30;7.20;48.90
24217;DHT22;12356;49.386;8.688;2024-03-07T01:56:02;7.20;47.10
24217;DHT22;12356;49.386;8.688;2024-03-07T01:58:33;7.10;46.30
24217;DHT22;12356;49.386;8.688;2024-03-07T02:01:05;7.00;47.30
24217;DHT22;12356;49.386;8.688;2024-03-07T02:03:35;7.10;47.80
24217;DHT22;12356;49.386;8.688;2024-03-07T02:06:06;7.00;47.90
24217;DHT22;12356;49.386;8.688;2024-03-07T02:08:38;7.00;47.10
24217;DHT22;12356;49.386;8.688;2024-03-07T02:11:09;6.90;45.80
24217;DHT22;12356;49.386;8.688;2024-03-07T02:13:40;6.90;46.80
24217;DHT22;12356;49.386;8.688;2024-03-07T02:16:10;6.90;46.60
24217;DHT22;12356;49.386;8.688;2024-03-07T02:18:41;6.90;47.80
24217;DHT22;12356;49.386;8.688;2024-03-07T02:21:12;6.90;47.90
24217;DHT22;12356;49.386;8.688;2024-03-07T02:23:42;6.80;46.00
24217;DHT22;12356;49.386;8.688;2024-03-07T02:26:14;6.70;46.80
24217;DHT22;12356;49.386;8.688;2024-03-07T02:28:44;6.70;48.00
24217;DHT22;12356;49.386;8.688;2024-03-07T02:31:15;6.60;47.60
24217;DHT22;12356;49.386;8.688;2024-03-07T02:33:45;6.70;48.10
24217;DHT22;12356;49.386;8.688;2024-03-07T02:36:16;6.60;48.20
24217;DHT22;12356;49.386;8.688;2024-03-07T02:38:48;6.50;48.20
24217;DHT22;12356;49.386;8.688;2024-03-07T02:41:18;6.50;47.80
24217;DHT22;12356;49.386;8.688;2024-03-07T02:43:49;6.60;47.70
24217;DHT22;12356;49.386;8.688;2024-03-07T02:46:19;6.50;47.60
24217;DHT22;12356;49.386;8.688;2024-03-07T02:48:50;6.50;48.20
24217;DHT22;12356;49.386;8.688;2024-03-07T02:51:21;6.60;48.20
24217;DHT22;12356;49.386;8.688;2024-03-07T02:53:51;6.50;47.40
24217;DHT22;12356;49.386;8.688;2024-03-07T02:56:22;6.50;47.80
24217;DHT22;12356;49.386;8.688;2024-03-07T02:58:53;6.50;47.20
24217;DHT22;12356;49.386;8.688;2024-03-07T03:01:23;6.50;46.30
24217;DHT22;12356;49.386;8.688;2024-03-07T03:03:54;6.50;45.40
24217;DHT22;12356;49.386;8.688;2024-03-07T03:06:25;6.50;43.90
24217;DHT22;12356;49.386;8.688;2024-03-07T03:08:55;6.40;43.80
24217;DHT22;12356;49.386;8.688;2024-03-07T03:11:26;6.40;43.30
24217;DHT22;12356;49.386;8.688;2024-03-07T03:13:57;6.30;43.00
24217;DHT22;12356;49.386;8.688;2024-03-07T03:16:28;6.30;42.90
24217;DHT22;12356;49.386;8.688;2024-03-07T03:18:58;6.30;42.10
24217;DHT22;12356;49.386;8.688;2024-03-07T03:21:29;6.30;41.70
24217;DHT22;12356;49.386;8.688;2024-03-07T03:23:59;6.20;42.70
24217;DHT22;12356;49.386;8.688;2024-03-07T03:26:30;6.30;41.60
24217;DHT22;12356;49.386;8.688;2024-03-07T03:29:01;6.20;41.40
24217;DHT22;12356;49.386;8.688;2024-03-07T03:31:33;6.20;41.20
24217;DHT22;12356;49.386;8.688;2024-03-07T03:34:03;6.20;41.40
24217;DHT22;12356;49.386;8.688;2024-03-07T03:36:34;6.20;40.80
24217;DHT22;12356;49.386;8.688;2024-03-07T03:39:04;6.10;40.60
24217;DHT22;12356;49.386;8.688;2024-03-07T03:41:37;6.00;40.70
24217;DHT22;12356;49.386;8.688;2024-03-07T03:44:07;6.10;40.40
24217;DHT22;12356;49.386;8.688;2024-03-07T03:46:38;6.10;39.90
24217;DHT22;12356;49.386;8.688;2024-03-07T03:49:08;5.90;39.70
24217;DHT22;12356;49.386;8.688;2024-03-07T03:51:39;5.90;39.90
24217;DHT22;12356;49.386;8.688;2024-03-07T03:54:09;5.90;40.10
24217;DHT22;12356;49.386;8.688;2024-03-07T03:56:40;5.90;39.90
24217;DHT22;12356;49.386;8.688;2024-03-07T03:59:10;5.80;40.10
24217;DHT22;12356;49.386;8.688;2024-03-07T04:01:41;5.90;39.80
24217;DHT22;12356;49.386;8.688;2024-03-07T04:04:12;5.90;39.80
24217;DHT22;12356;49.386;8.688;2024-03-07T04:06:43;5.90;38.60
24217;DHT22;12356;49.386;8.688;2024-03-07T04:09:13;5.90;38.10
24217;DHT22;12356;49.386;8.688;2024-03-07T04:11:45;5.80;38.10
24217;DHT22;12356;49.386;8.688;2024-03-07T04:14:16;5.80;38.80
24217;DHT22;12356;49.386;8.688;2024-03-07T04:16:47;5.80;38.60
24217;DHT22;12356;49.386;8.688;2024-03-07T04:19:17;5.80;38.30
24217;DHT22;12356;49.386;8.688;2024-03-07T04:21:50;5.90;37.20
24217;DHT22;12356;49.386;8.688;2024-03-07T04:24:21;5.90;37.30
24217;DHT22;12356;49.386;8.688;2024-03-07T04:26:52;5.90;36.70
24217;DHT22;12356;49.386;8.688;2024-03-07T04:29:23;5.90;35.50
24217;DHT22;12356;49.386;8.688;2024-03-07T04:31:54;5.70;34.80
24217;DHT22;12356;49.386;8.688;2024-03-07T04:34:25;5.70;34.80
24217;DHT22;12356;49.386;8.688;2024-03-07T04:36:55;5.50;36.10
24217;DHT22;12356;49.386;8.688;2024-03-07T04:39:26;5.50;37.00
24217;DHT22;12356;49.386;8.688;2024-03-07T04:42:06;5.70;38.20
24217;DHT22;12356;49.386;8.688;2024-03-07T04:44:37;5.70;38.60
24217;DHT22;12356;49.386;8.688;2024-03-07T04:47:08;5.60;35.60
24217;DHT22;12356;49.386;8.688;2024-03-07T04:49:38;5.40;34.90
24217;DHT22;12356;49.386;8.688;2024-03-07T04:52:11;5.40;36.60
24217;DHT22;12356;49.386;8.688;2024-03-07T04:54:41;5.50;36.30
24217;DHT22;12356;49.386;8.688;2024-03-07T04:57:12;5.40;36.10
24217;DHT22;12356;49.386;8.688;2024-03-07T04:59:43;5.30;35.30
24217;DHT22;12356;49.386;8.688;2024-03-07T05:02:13;5.30;36.10
24217;DHT22;12356;49.386;8.688;2024-03-07T05:04:44;5.40;37.00
24217;DHT22;12356;49.386;8.688;2024-03-07T05:07:14;5.40;36.20
24217;DHT22;12356;49.386;8.688;2024-03-07T05:09:45;5.20;35.10
24217;DHT22;12356;49.386;8.688;2024-03-07T05:12:16;5.10;35.50
24217;DHT22;12356;49.386;8.688;2024-03-07T05:14:46;5.10;37.40
24217;DHT22;12356;49.386;8.688;2024-03-07T05:17:17;5.10;36.20
24217;DHT22;12356;49.386;8.688;2024-03-07T05:19:50;5.20;37.40
24217;DHT22;12356;49.386;8.688;2024-03-07T05:22:20;5.20;34.60
24217;DHT22;12356;49.386;8.688;2024-03-07T05:24:55;5.10;34.40
24217;DHT22;12356;49.386;8.688;2024-03-07T05:27:28;5.10;34.60
24217;DHT22;12356;49.386;8.688;2024-03-07T05:30:00;5.00;34.70
24217;DHT22;12356;49.386;8.688;2024-03-07T05:32:31;5.10;35.00
24217;DHT22;12356;49.386;8.688;2024-03-07T05:35:03;5.00;35.20
24217;DHT22;12356;49.386;8.688;2024-03-07T05:37:34;5.10;34.30
24217;DHT22;12356;49.386;8.688;2024-03-07T05:40:05;5.00;33.50
24217;DHT22;12356;49.386;8.688;2024-03-07T05:42:38;5.00;33.10
24217;DHT22;12356;49.386;8.688;2024-03-07T05:45:09;5.00;34.20
24217;DHT22;12356;49.386;8.688;2024-03-07T05:47:41;5.00;33.10
24217;DHT22;12356;49.386;8.688;2024-03-07T05:50:11;5.00;32.70
24217;DHT22;12356;49.386;8.688;2024-03-07T05:52:43;5.10;33.60
24217;DHT22;12356;49.386;8.688;2024-03-07T05:55:14;5.10;32.70
24217;DHT22;12356;49.386;8.688;2024-03-07T05:57:46;5.00;31.10
24217;DHT22;12356;49.386;8.688;2024-03-07T06:00:17;5.00;30.20
24217;DHT22;12356;49.386;8.688;2024-03-07T06:02:57;4.90;31.00
24217;DHT22;12356;49.386;8.688;2024-03-07T06:05:28;4.90;30.90
24217;DHT22;12356;49.386;8.688;2024-03-07T06:07:58;4.90;31.40
24217;DHT22;12356;49.386;8.688;2024-03-07T06:10:29;4.80;32.40
24217;DHT22;12356;49.386;8.688;2024-03-07T06:12:59;4.90;33.30
24217;DHT22;12356;49.386;8.688;2024-03-07T06:15:30;4.90;31.90
24217;DHT22;12356;49.386;8.688;2024-03-07T06:18:01;4.90;32.30
24217;DHT22;12356;49.386;8.688;2024-03-07T06:20:31;4.80;31.70
24217;DHT22;12356;49.386;8.688;2024-03-07T06:23:02;4.90;32.40
24217;DHT22;12356;49.386;8.688;2024-03-07T06:25:35;4.90;31.90
24217;DHT22;12356;49.386;8.688;2024-03-07T06:28:20;4.80;31.70
24217;DHT22;12356;49.386;8.688;2024-03-07T06:30:51;4.90;33.50
24217;DHT22;12356;49.386;8.688;2024-03-07T06:33:22;5.00;32.20
24217;DHT22;12356;49.386;8.688;2024-03-07T06:35:52;4.90;31.60
24217;DHT22;12356;49.386;8.688;2024-03-07T06:38:23;5.00;30.70
24217;DHT22;12356;49.386;8.688;2024-03-07T06:40:54;5.00;30.40
24217;DHT22;12356;49.386;8.688;2024-03-07T06:43:25;5.10;31.20
24217;DHT22;12356;49.386;8.688;2024-03-07T06:45:55;5.20;31.30
24217;DHT22;12356;49.386;8.688;2024-03-07T06:48:26;5.20;30.60
24217;DHT22;12356;49.386;8.688;2024-03-07T06:50:57;5.30;31.30
24217;DHT22;12356;49.386;8.688;2024-03-07T06:53:28;5.30;29.30
24217;DHT22;12356;49.386;8.688;2024-03-07T06:55:59;5.40;28.60
24217;DHT22;12356;49.386;8.688;2024-03-07T06:58:31;5.50;28.90
24217;DHT22;12356;49.386;8.688;2024-03-07T07:01:01;5.50;27.80
24217;DHT22;12356;49.386;8.688;2024-03-07T07:03:37;5.30;27.10
24217;DHT22;12356;49.386;8.688;2024-03-07T07:06:07;5.20;27.60
24217;DHT22;12356;49.386;8.688;2024-03-07T07:08:38;5.20;28.40
24217;DHT22;12356;49.386;8.688;2024-03-07T07:11:09;5.20;27.70
24217;DHT22;12356;49.386;8.688;2024-03-07T07:13:41;5.20;28.00
24217;DHT22;12356;49.386;8.688;2024-03-07T07:16:12;5.20;27.60
24217;DHT22;12356;49.386;8.688;2024-03-07T07:18:43;5.20;27.30
24217;DHT22;12356;49.386;8.688;2024-03-07T07:21:13;5.00;26.40
24217;DHT22;12356;49.386;8.688;2024-03-07T07:23:46;5.00;27.00
24217;DHT22;12356;49.386;8.688;2024-03-07T07:26:16;5.00;26.80
24217;DHT22;12356;49.386;8.688;2024-03-07T07:28:47;5.00;27.10
24217;DHT22;12356;49.386;8.688;2024-03-07T07:31:17;5.00;26.20
24217;DHT22;12356;49.386;8.688;2024-03-07T07:33:48;5.10;26.90
24217;DHT22;12356;49.386;8.688;2024-03-07T07:36:19;5.20;27.30
24217;DHT22;12356;49.386;8.688;2024-03-07T07:38:50;5.30;26.70
24217;DHT22;12356;49.386;8.688;2024-03-07T07:41:20;5.20;26.60
24217;DHT22;12356;49.386;8.688;2024-03-07T07:43:51;5.20;26.70
24217;DHT22;12356;49.386;8.688;2024-03-07T07:46:22;5.40;27.50
24217;DHT22;12356;49.386;8.688;2024-03-07T07:48:53;5.40;26.90
24217;DHT22;12356;49.386;8.688;2024-03-07T07:51:24;5.50;27.10
24217;DHT22;12356;49.386;8.688;2024-03-07T07:53:55;5.50;26.90
24217;DHT22;12356;49.386;8.688;2024-03-07T07:56:27;5.70;27.80
24217;DHT22;12356;49.386;8.688;2024-03-07T07:58:58;5.70;27.50
24217;DHT22;12356;49.386;8.688;2024-03-07T08:01:29;5.80;26.10
24217;DHT22;12356;49.386;8.688;2024-03-07T08:04:00;5.80;23.60
24217;DHT22;12356;49.386;8.688;2024-03-07T08:06:31;5.90;24.50
24217;DHT22;12356;49.386;8.688;2024-03-07T08:09:01;6.10;25.40
24217;DHT22;12356;49.386;8.688;2024-03-07T08:11:32;6.20;24.70
24217;DHT22;12356;49.386;8.688;2024-03-07T08:14:03;6.10;18.90
24217;DHT22;12356;49.386;8.688;2024-03-07T08:16:33;6.10;16.70
24217;DHT22;12356;49.386;8.688;2024-03-07T08:19:04;6.10;17.00
24217;DHT22;12356;49.386;8.688;2024-03-07T08:21:34;6.20;16.30
24217;DHT22;12356;49.386;8.688;2024-03-07T08:24:05;6.30;19.50
24217;DHT22;12356;49.386;8.688;2024-03-07T08:26:41;6.30;16.10
24217;DHT22;12356;49.386;8.688;2024-03-07T08:29:14;6.50;18.00
24217;DHT22;12356;49.386;8.688;2024-03-07T08:31:46;6.50;17.80
24217;DHT22;12356;49.386;8.688;2024-03-07T08:34:17;6.60;13.10
24217;DHT22;12356;49.386;8.688;2024-03-07T08:36:47;6.60;10.10
24217;DHT22;12356;49.386;8.688;2024-03-07T08:39:18;6.60;10.50
24217;DHT22;12356;49.386;8.688;2024-03-07T08:41:49;6.40;10.20
24217;DHT22;12356;49.386;8.688;2024-03-07T08:44:20;6.50;10.50
24217;DHT22;12356;49.386;8.688;2024-03-07T08:46:50;6.50;10.30
24217;DHT22;12356;49.386;8.688;2024-03-07T08:49:21;6.60;9.20
24217;DHT22;12356;49.386;8.688;2024-03-07T08:51:52;6.60;8.00
24217;DHT22;12356;49.386;8.688;2024-03-07T08:54:23;6.60;9.70
24217;DHT22;12356;49.386;8.688;2024-03-07T08:56:53;6.50;6.70
24217;DHT22;12356;49.386;8.688;2024-03-07T08:59:24;6.50;6.10
24217;DHT22;12356;49.386;8.688;2024-03-07T09:01:55;6.60;7.20
24217;DHT22;12356;49.386;8.688;2024-03-07T09:04:25;6.70;4.70
24217;DHT22;12356;49.386;8.688;2024-03-07T09:06:56;6.80;5.20
24217;DHT22;12356;49.386;8.688;2024-03-07T09:09:26;6.80;5.20
24217;DHT22;12356;49.386;8.688;2024-03-07T09:11:57;6.90;5.60
24217;DHT22;12356;49.386;8.688;2024-03-07T09:14:28;7.00;4.80
24217;DHT22;12356;49.386;8.688;2024-03-07T09:16:58;7.10;6.20
24217;DHT22;12356;49.386;8.688;2024-03-07T09:19:29;7.20;7.40
24217;DHT22;12356;49.386;8.688;2024-03-07T09:21:59;7.30;8.50
24217;DHT22;12356;49.386;8.688;2024-03-07T09:24:31;7.40;8.60
24217;DHT22;12356;49.386;8.688;2024-03-07T09:27:01;7.40;7.60
24217;DHT22;12356;49.386;8.688;2024-03-07T09:29:32;7.50;2.80
24217;DHT22;12356;49.386;8.688;2024-03-07T09:32:04;7.50;3.40
24217;DHT22;12356;49.386;8.688;2024-03-07T09:34:34;7.50;1.10
24217;DHT22;12356;49.386;8.688;2024-03-07T09:37:08;7.60;5.40
24217;DHT22;12356;49.386;8.688;2024-03-07T09:39:39;7.60;1.00
24217;DHT22;12356;49.386;8.688;2024-03-07T09:42:09;7.60;2.10
24217;DHT22;12356;49.386;8.688;2024-03-07T09:44:43;7.70;1.00
24217;DHT22;12356;49.386;8.688;2024-03-07T09:47:15;7.80;3.50
24217;DHT22;12356;49.386;8.688;2024-03-07T09:49:46;7.90;5.60
24217;DHT22;12356;49.386;8.688;2024-03-07T09:52:17;7.90;4.70
24217;DHT22;12356;49.386;8.688;2024-03-07T09:54:48;8.00;4.60
24217;DHT22;12356;49.386;8.688;2024-03-07T09:57:19;8.00;1.00
24217;DHT22;12356;49.386;8.688;2024-03-07T09:59:51;8.00;3.10
24217;DHT22;12356;49.386;8.688;2024-03-07T10:02:24;8.00;1.00
24217;DHT22;12356;49.386;8.688;2024-03-07T10:04:56;8.00;1.00
24217;DHT22;12356;49.386;8.688;2024-03-07T10:07:28;7.90;1.00
24217;DHT22;12356;49.386;8.688;2024-03-07T10:09:59;8.10;3.30
24217;DHT22;12356;49.386;8.688;2024-03-07T10:12:30;8.10;1.90
24217;DHT22;12356;49.386;8.688;2024-03-07T10:15:03;8.10;1.00
24217;DHT22;12356;49.386;8.688;2024-03-07T10:17:35;8.20;1.00
24217;DHT22;12356;49.386;8.688;2024-03-07T10:20:06;8.30;1.30
24217;DHT22;12356;49.386;8.688;2024-03-07T10:22:41;8.30;1.00
24217;DHT22;12356;49.386;8.688;2024-03-07T10:25:11;8.40;1.50
24217;DHT22;12356;49.386;8.688;2024-03-07T10:27:42;8.40;1.00
24217;DHT22;12356;49.386;8.688;2024-03-07T10:30:13;8.50;1.00
24217;DHT22;12356;49.386;8.688;2024-03-07T10:32:58;8.60;1.00
24217;DHT22;12356;49.386;8.688;2024-03-07T10:35:29;8.60;1.00
24217;DHT22;12356;49.386;8.688;2024-03-07T10:38:01;8.60;1.00
24217;DHT22;12356;49.386;8.688;2024-03-07T10:40:36;8.70;1.00
24217;DHT22;12356;49.386;8.688;2024-03-07T10:43:11;8.70;1.00
24217;DHT22;12356;49.386;8.688;2024-03-07T10:45:45;8.80;1.00
24217;DHT22;12356;49.386;8.688;2024-03-07T10:48:19;8.90;1.00
24217;DHT22;12356;49.386;8.688;2024-03-07T10:51:26;9.00;1.00
24217;DHT22;12356;49.386;8.688;2024-03-07T10:54:11;9.10;1.00
24217;DHT22;12356;49.386;8.688;2024-03-07T10:57:01;9.00;1.00
24217;DHT22;12356;49.386;8.688;2024-03-07T10:59:38;9.00;1.00
24217;DHT22;12356;49.386;8.688;2024-03-07T11:02:37;8.90;1.00
24217;DHT22;12356;49.386;8.688;2024-03-07T11:05:15;8.90;1.00
24217;DHT22;12356;49.386;8.688;2024-03-07T11:07:46;8.90;1.00
24217;DHT22;12356;49.386;8.688;2024-03-07T11:10:18;9.00;1.00
24217;DHT22;12356;49.386;8.688;2024-03-07T11:12:50;9.10;1.00
24217;DHT22;12356;49.386;8.688;2024-03-07T11:15:23;9.10;1.00
24217;DHT22;12356;49.386;8.688;2024-03-07T11:17:56;9.20;1.00
24217;DHT22;12356;49.386;8.688;2024-03-07T11:20:34;9.30;1.00
24217;DHT22;12356;49.386;8.688;2024-03-07T11:26:03;9.40;1.00
24217;DHT22;12356;49.386;8.688;2024-03-07T11:28:41;9.40;1.00
24217;DHT22;12356;49.386;8.688;2024-03-07T11:31:13;9.50;1.00
24217;DHT22;12356;49.386;8.688;2024-03-07T11:34:13;9.60;1.00
24217;DHT22;12356;49.386;8.688;2024-03-07T11:36:52;9.60;1.00
24217;DHT22;12356;49.386;8.688;2024-03-07T11:39:43;9.60;1.00
24217;DHT22;12356;49.386;8.688;2024-03-07T11:44:58;9.80;1.00
24217;DHT22;12356;49.386;8.688;2024-03-07T11:47:38;9.80;1.00
24217;DHT22;12356;49.386;8.688;2024-03-07T11:50:09;9.70;1.00
24217;DHT22;12356;49.386;8.688;2024-03-07T11:52:42;9.80;1.00
24217;DHT22;12356;49.386;8.688;2024-03-07T11:55:14;9.90;1.00
24217;DHT22;12356;49.386;8.688;2024-03-07T11:57:46;9.80;1.00
24217;DHT22;12356;49.386;8.688;2024-03-07T12:00:18;10.00;1.00
24217;DHT22;12356;49.386;8.688;2024-03-07T12:02:49;9.90;1.00
24217;DHT22;12356;49.386;8.688;2024-03-07T12:05:20;9.90;1.00
24217;DHT22;12356;49.386;8.688;2024-03-07T12:07:50;9.80;1.00
24217;DHT22;12356;49.386;8.688;2024-03-07T12:10:21;9.80;1.00
24217;DHT22;12356;49.386;8.688;2024-03-07T12:12:55;9.80;1.00
24217;DHT22;12356;49.386;8.688;2024-03-07T12:15:27;9.80;1.00
24217;DHT22;12356;49.386;8.688;2024-03-07T12:17:58;9.90;1.00
24217;DHT22;12356;49.386;8.688;2024-03-07T12:20:32;9.90;1.00
24217;DHT22;12356;49.386;8.688;2024-03-07T12:23:04;10.10;1.00
24217;DHT22;12356;49.386;8.688;2024-03-07T12:25:39;10.20;1.00
24217;DHT22;12356;49.386;8.688;2024-03-07T12:28:14;10.30;1.00
24217;DHT22;12356;49.386;8.688;2024-03-07T12:30:49;10.30;1.00
24217;DHT22;12356;49.386;8.688;2024-03-07T12:33:21;10.30;1.00
24217;DHT22;12356;49.386;8.688;2024-03-07T12:35:55;10.40;1.00
24217;DHT22;12356;49.386;8.688;2024-03-07T12:38:31;10.40;1.00
24217;DHT22;12356;49.386;8.688;2024-03-07T12:41:09;10.30;1.00
24217;DHT22;12356;49.386;8.688;2024-03-07T12:43:46;10.30;1.00
24217;DHT22;12356;49.386;8.688;2024-03-07T12:46:17;10.30;1.00
24217;DHT22;12356;49.386;8.688;2024-03-07T12:48:47;10.30;1.00
24217;DHT22;12356;49.386;8.688;2024-03-07T12:51:20;10.30;1.00
24217;DHT22;12356;49.386;8.688;2024-03-07T12:53:50;10.40;1.00
24217;DHT22;12356;49.386;8.688;2024-03-07T12:56:21;10.40;1.00
24217;DHT22;12356;49.386;8.688;2024-03-07T12:58:51;10.40;1.00
24217;DHT22;12356;49.386;8.688;2024-03-07T13:01:23;10.40;1.00
24217;DHT22;12356;49.386;8.688;2024-03-07T13:03:54;10.50;1.00
24217;DHT22;12356;49.386;8.688;2024-03-07T13:06:25;10.60;1.00
24217;DHT22;12356;49.386;8.688;2024-03-07T13:08:59;10.70;1.00
24217;DHT22;12356;49.386;8.688;2024-03-07T13:11:30;10.70;1.00
24217;DHT22;12356;49.386;8.688;2024-03-07T13:14:02;10.70;1.00
24217;DHT22;12356;49.386;8.688;2024-03-07T13:16:33;10.70;1.00
24217;DHT22;12356;49.386;8.688;2024-03-07T13:19:04;10.60;1.00
24217;DHT22;12356;49.386;8.688;2024-03-07T13:21:35;10.60;1.00
24217;DHT22;12356;49.386;8.688;2024-03-07T13:24:06;10.60;1.00
24217;DHT22;12356;49.386;8.688;2024-03-07T13:26:38;10.60;1.00
24217;DHT22;12356;49.386;8.688;2024-03-07T13:29:09;10.50;1.00
24217;DHT22;12356;49.386;8.688;2024-03-07T13:31:40;10.50;1.00
24217;DHT22;12356;49.386;8.688;2024-03-07T13:34:13;10.50;1.00
24217;DHT22;12356;49.386;8.688;2024-03-07T13:36:44;10.50;1.00
24217;DHT22;12356;49.386;8.688;2024-03-07T13:39:15;10.50;1.00
24217;DHT22;12356;49.386;8.688;2024-03-07T13:41:46;10.50;1.00
24217;DHT22;12356;49.386;8.688;2024-03-07T13:44:18;10.50;1.00
24217;DHT22;12356;49.386;8.688;2024-03-07T13:46:50;10.50;1.00
24217;DHT22;12356;49.386;8.688;2024-03-07T13:49:20;10.50;1.00
24217;DHT22;12356;49.386;8.688;2024-03-07T13:51:54;10.50;1.00
24217;DHT22;12356;49.386;8.688;2024-03-07T13:54:30;10.60;1.00
24217;DHT22;12356;49.386;8.688;2024-03-07T14:03:08;10.60;1.00
24217;DHT22;12356;49.386;8.688;2024-03-07T14:12:04;10.60;1.00
24217;DHT22;12356;49.386;8.688;2024-03-07T14:15:18;10.60;1.00
24217;DHT22;12356;49.386;8.688;2024-03-07T14:30:41;10.70;1.00
24217;DHT22;12356;49.386;8.688;2024-03-07T14:33:14;10.60;1.00
24217;DHT22;12356;49.386;8.688;2024-03-07T14:36:07;10.60;1.00
24217;DHT22;12356;49.386;8.688;2024-03-07T14:38:50;10.60;1.00
24217;DHT22;12356;49.386;8.688;2024-03-07T14:41:37;10.60;1.00
24217;DHT22;12356;49.386;8.688;2024-03-07T14:44:11;10.60;1.00
24217;DHT22;12356;49.386;8.688;2024-03-07T14:46:42;10.50;1.00
24217;DHT22;12356;49.386;8.688;2024-03-07T14:49:15;10.50;1.00
24217;DHT22;12356;49.386;8.688;2024-03-07T14:51:47;10.50;1.00
24217;DHT22;12356;49.386;8.688;2024-03-07T14:54:22;10.40;1.00
24217;DHT22;12356;49.386;8.688;2024-03-07T14:56:54;10.40;1.00
24217;DHT22;12356;49.386;8.688;2024-03-07T14:59:24;10.30;1.00
24217;DHT22;12356;49.386;8.688;2024-03-07T15:01:56;10.40;1.00
24217;DHT22;12356;49.386;8.688;2024-03-07T15:04:31;10.40;1.00
24217;DHT22;12356;49.386;8.688;2024-03-07T15:07:02;10.30;1.00
24217;DHT22;12356;49.386;8.688;2024-03-07T15:09:33;10.40;1.00
24217;DHT22;12356;49.386;8.688;2024-03-07T15:12:04;10.40;1.00
24217;DHT22;12356;49.386;8.688;2024-03-07T15:14:37;10.40;1.00
24217;DHT22;12356;49.386;8.688;2024-03-07T15:17:08;10.40;1.00
24217;DHT22;12356;49.386;8.688;2024-03-07T15:19:38;10.40;1.00
24217;DHT22;12356;49.386;8.688;2024-03-07T15:22:09;10.50;1.00
24217;DHT22;12356;49.386;8.688;2024-03-07T15:24:39;10.40;1.00
24217;DHT22;12356;49.386;8.688;2024-03-07T15:27:10;10.40;1.00
24217;DHT22;12356;49.386;8.688;2024-03-07T15:29:41;10.40;1.00
24217;DHT22;12356;49.386;8.688;2024-03-07T15:32:12;10.50;1.00
24217;DHT22;12356;49.386;8.688;2024-03-07T15:34:44;10.40;1.00
24217;DHT22;12356;49.386;8.688;2024-03-07T15:37:14;10.40;1.00
24217;DHT22;12356;49.386;8.688;2024-03-07T15:39:45;10.40;1.00
24217;DHT22;12356;49.386;8.688;2024-03-07T15:42:18;10.40;1.00
24217;DHT22;12356;49.386;8.688;2024-03-07T15:44:48;10.30;1.00
24217;DHT22;12356;49.386;8.688;2024-03-07T15:47:19;10.30;1.00
24217;DHT22;12356;49.386;8.688;2024-03-07T15:49:50;10.20;1.00
24217;DHT22;12356;49.386;8.688;2024-03-07T15:52:22;10.30;1.20
24217;DHT22;12356;49.386;8.688;2024-03-07T15:54:52;10.30;1.00
24217;DHT22;12356;49.386;8.688;2024-03-07T15:57:23;10.20;1.00
24217;DHT22;12356;49.386;8.688;2024-03-07T15:59:53;10.30;1.00
24217;DHT22;12356;49.386;8.688;2024-03-07T16:02:24;10.20;1.00
24217;DHT22;12356;49.386;8.688;2024-03-07T16:04:54;10.30;2.40
24217;DHT22;12356;49.386;8.688;2024-03-07T16:07:27;10.30;2.10
24217;DHT22;12356;49.386;8.688;2024-03-07T16:09:58;10.30;1.00
24217;DHT22;12356;49.386;8.688;2024-03-07T16:12:28;10.30;1.00
24217;DHT22;12356;49.386;8.688;2024-03-07T16:14:59;10.30;1.00
24217;DHT22;12356;49.386;8.688;2024-03-07T16:17:29;10.20;1.00
24217;DHT22;12356;49.386;8.688;2024-03-07T16:20:00;10.10;1.00
24217;DHT22;12356;49.386;8.688;2024-03-07T16:22:30;10.10;1.00
24217;DHT22;12356;49.386;8.688;2024-03-07T16:25:01;10.00;1.00
24217;DHT22;12356;49.386;8.688;2024-03-07T16:27:32;10.10;1.00
24217;DHT22;12356;49.386;8.688;2024-03-07T16:30:04;10.10;1.00
24217;DHT22;12356;49.386;8.688;2024-03-07T16:32:38;10.10;1.00
24217;DHT22;12356;49.386;8.688;2024-03-07T16:35:09;10.10;1.00
24217;DHT22;12356;49.386;8.688;2024-03-07T16:37:40;10.10;1.00
24217;DHT22;12356;49.386;8.688;2024-03-07T16:40:14;10.10;1.00
24217;DHT22;12356;49.386;8.688;2024-03-07T16:42:47;10.10;1.00
24217;DHT22;12356;49.386;8.688;2024-03-07T16:45:33;10.00;1.00
24217;DHT22;12356;49.386;8.688;2024-03-07T16:48:04;10.10;1.00
24217;DHT22;12356;49.386;8.688;2024-03-07T16:50:39;10.00;1.00
24217;DHT22;12356;49.386;8.688;2024-03-07T16:53:10;10.00;1.00